| time (UTC) | temp F | wind direction | speed MPH | gust MPH | rain 1hr in | rain 24hr in | rain mn in | humidity % | barometer mb |
| 20260510133048 | 50 | 185 | 0.0 | 6.0 | 0.06 | 0.07 | 0.07 | 86 | 1009.1 |
| 20260510131546 | 50 | 164 | 0.0 | 5.0 | 0.07 | 0.07 | 0.07 | 86 | 1009.2 |
| 20260510130045 | 49 | 178 | 0.0 | 2.0 | 0.06 | 0.06 | 0.06 | 86 | 1009.2 |
| 20260510124552 | 49 | 198 | 1.0 | 5.0 | 0.03 | 0.03 | 0.03 | 86 | 1009.6 |
| 20260510123039 | 49 | 188 | 1.0 | 4.0 | 0.01 | 0.01 | 0.01 | 85 | 1009.8 |
| 20260510121538 | 49 | 149 | 0.0 | 3.0 | 0.00 | 0.00 | 0.00 | 85 | 1009.8 |
| 20260510120040 | 49 | 178 | 0.0 | 5.0 | 0.00 | 0.00 | 0.00 | 85 | 1009.9 |
| 20260510114539 | 49 | 170 | 1.0 | 6.0 | 0.00 | 0.00 | 0.00 | 85 | 1009.9 |
| 20260510113036 | 48 | 161 | 2.0 | 6.0 | 0.00 | 0.00 | 0.00 | 85 | 1009.9 |
| 20260510111544 | 48 | 180 | 0.0 | 5.0 | 0.00 | 0.00 | 0.00 | 85 | 1009.9 |
| 20260510110032 | 48 | 178 | 2.0 | 7.0 | 0.00 | 0.00 | 0.00 | 85 | 1010.0 |
| 20260510104536 | 47 | 177 | 2.0 | 8.0 | 0.00 | 0.00 | 0.00 | 85 | 1009.9 |
| 20260510103029 | 47 | 174 | 1.0 | 6.0 | 0.00 | 0.00 | 0.00 | 86 | 1009.9 |
| 20260510101527 | 47 | 168 | 0.0 | 6.0 | 0.00 | 0.00 | 0.00 | 86 | 1010.1 |
| 20260510100028 | 47 | 211 | 0.0 | 7.0 | 0.00 | 0.00 | 0.00 | 85 | 1010.1 |
| 20260510094530 | 46 | 178 | 2.0 | 7.0 | 0.00 | 0.00 | 0.00 | 86 | 1010.2 |
| 20260510093023 | 46 | 185 | 0.0 | 6.0 | 0.00 | 0.00 | 0.00 | 86 | 1010.2 |
| 20260510091523 | 45 | 182 | 1.0 | 6.0 | 0.00 | 0.00 | 0.00 | 86 | 1010.4 |
| 20260510090020 | 45 | 188 | 2.0 | 7.0 | 0.00 | 0.00 | 0.00 | 86 | 1010.4 |
| 20260510084518 | 45 | 175 | 2.0 | 6.0 | 0.00 | 0.00 | 0.00 | 85 | 1010.3 |
| 20260510083015 | 44 | 217 | 0.0 | 3.0 | 0.00 | 0.00 | 0.00 | 85 | 1010.4 |
| 20260510081513 | 44 | 213 | 0.0 | 4.0 | 0.00 | 0.00 | 0.00 | 85 | 1010.5 |
| 20260510080016 | 44 | 101 | 0.0 | 5.0 | 0.00 | 0.00 | 0.00 | 85 | 1010.7 |
| 20260510074515 | 44 | 194 | 1.0 | 5.0 | 0.00 | 0.00 | 0.00 | 85 | 1010.7 |
| 20260510073010 | 43 | 181 | 1.0 | 5.0 | 0.00 | 0.00 | 0.00 | 84 | 1010.8 |
| 20260510071512 | 43 | 167 | 0.0 | 4.0 | 0.00 | 0.00 | 0.00 | 84 | 1010.7 |
| 20260510070009 | 43 | 201 | 0.0 | 4.0 | 0.00 | 0.00 | 0.00 | 84 | 1010.7 |
| 20260510064508 | 43 | 186 | 0.0 | 4.0 | 0.00 | 0.00 | 0.00 | 83 | 1010.6 |
| 20260510063006 | 43 | 155 | 0.0 | 3.0 | 0.00 | 0.00 | 0.00 | 83 | 1010.9 |
| 20260510061507 | 43 | 182 | 0.0 | 3.0 | 0.00 | 0.00 | 0.00 | 82 | 1011.1 |
| 20260510060006 | 43 | 176 | 0.0 | 3.0 | 0.00 | 0.00 | 0.00 | 81 | 1011.0 |
| 20260510054503 | 44 | 171 | 0.0 | 5.0 | 0.00 | 0.00 | 0.00 | 80 | 1011.2 |
| 20260510053001 | 44 | 163 | 0.0 | 5.0 | 0.00 | 0.00 | 0.00 | 78 | 1011.3 |
| 20260510051658 | 44 | 182 | 0.0 | 6.0 | 0.00 | 0.00 | 0.00 | 77 | 1011.4 |
| 20260510050058 | 44 | 178 | 0.0 | 5.0 | 0.00 | 0.00 | 0.00 | 75 | 1011.5 |
| 20260510044557 | 44 | 134 | 0.0 | 1.0 | 0.00 | 0.00 | 0.00 | 75 | 1011.7 |
| 20260510043143 | 44 | 180 | 0.0 | 7.0 | 0.00 | 0.00 | 0.00 | 74 | 1011.6 |
| 20260510041554 | 44 | 186 | 0.0 | 4.0 | 0.00 | 0.00 | 0.00 | 74 | 1011.9 |
| 20260510040051 | 43 | 196 | 0.0 | 0.0 | 0.00 | 0.00 | 0.00 | 73 | 1012.2 |
| 20260510034554 | 43 | 182 | 0.0 | 0.0 | 0.00 | 0.00 | 0.00 | 72 | 1012.1 |
| 20260510033051 | 44 | 140 | 0.0 | 2.0 | 0.00 | 0.00 | 0.00 | 71 | 1012.4 |
| 20260510031620 | 44 | 182 | 0.0 | 0.0 | 0.00 | 0.00 | 0.00 | 69 | 1012.4 |
| 20260510030052 | 44 | 123 | 0.0 | 3.0 | 0.00 | 0.00 | 0.00 | 67 | 1012.6 |
| 20260510024547 | 45 | 171 | 0.0 | 2.0 | 0.00 | 0.00 | 0.00 | 65 | 1012.4 |
| 20260510023054 | 45 | 175 | 0.0 | 0.0 | 0.00 | 0.00 | 0.00 | 62 | 1012.5 |
| 20260510021547 | 46 | 171 | 0.0 | 3.0 | 0.00 | 0.00 | 0.00 | 61 | 1012.5 |
| 20260510020048 | 46 | 174 | 0.0 | 3.0 | 0.00 | 0.00 | 0.00 | 59 | 1012.6 |
| 20260510014545 | 46 | 175 | 0.0 | 0.0 | 0.00 | 0.00 | 0.00 | 57 | 1012.6 |
| 20260510013044 | 48 | 197 | 0.0 | 1.0 | 0.00 | 0.00 | 0.00 | 53 | 1012.8 |
| 20260510011556 | 48 | 186 | 0.0 | 0.0 | 0.00 | 0.00 | 0.00 | 51 | 1012.7 |
| 20260510010050 | 49 | 188 | 0.0 | 1.0 | 0.00 | 0.00 | 0.00 | 50 | 1012.4 |
| 20260510004537 | 50 | 180 | 0.0 | 6.0 | 0.00 | 0.00 | 0.00 | 47 | 1012.2 |
| 20260510003036 | 51 | 186 | 0.0 | 3.0 | 0.00 | 0.00 | 0.00 | 43 | 1011.9 |
| 20260510001535 | 52 | 189 | 0.0 | 1.0 | 0.00 | 0.00 | 0.00 | 42 | 1011.8 |
| 20260510000034 | 53 | 200 | 0.0 | 6.0 | 0.00 | 0.00 | 0.00 | 40 | 1011.5 |
| 20260509234536 | 54 | 171 | 0.0 | 14.0 | 0.00 | 0.00 | 0.00 | 40 | 1011.3 |
| 20260509233033 | 55 | 182 | 0.0 | 7.0 | 0.00 | 0.00 | 0.00 | 37 | 1010.9 |
| 20260509231533 | 56 | 181 | 0.0 | 0.0 | 0.00 | 0.00 | 0.00 | 36 | 1010.9 |
| 20260509230032 | 56 | 170 | 0.0 | 0.0 | 0.00 | 0.00 | 0.00 | 33 | 1010.7 |
| 20260509224532 | 57 | 171 | 0.0 | 6.0 | 0.00 | 0.00 | 0.00 | 32 | 1010.6 |
| 20260509223032 | 58 | 183 | 0.0 | 8.0 | 0.00 | 0.00 | 0.00 | 30 | 1010.5 |
| 20260509221536 | 58 | 168 | 0.0 | 7.0 | 0.00 | 0.00 | 0.00 | 30 | 1010.4 |
| 20260509220030 | 58 | 178 | 0.0 | 1.0 | 0.00 | 0.02 | 0.00 | 29 | 1010.4 |
| 20260509214530 | 58 | 186 | 0.0 | 10.0 | 0.00 | 0.02 | 0.00 | 29 | 1010.5 |
| 20260509213028 | 58 | 148 | 0.0 | 12.0 | 0.00 | 0.02 | 0.00 | 31 | 1010.4 |
| 20260509211549 | 58 | 193 | 0.0 | 9.0 | 0.00 | 0.02 | 0.00 | 32 | 1010.5 |
| 20260509210028 | 58 | 203 | 0.0 | 10.0 | 0.00 | 0.02 | 0.00 | 31 | 1010.5 |
| 20260509204527 | 58 | 179 | 2.0 | 12.0 | 0.00 | 0.02 | 0.00 | 29 | 1010.4 |
| 20260509203038 | 58 | 154 | 0.0 | 9.0 | 0.00 | 0.02 | 0.00 | 30 | 1010.5 |
| 20260509201526 | 61 | 182 | 1.0 | 11.0 | 0.00 | 0.02 | 0.00 | 30 | 1010.5 |
| 20260509200026 | 59 | 163 | 0.0 | 7.0 | 0.00 | 0.02 | 0.00 | 31 | 1010.5 |
| 20260509194525 | 59 | 186 | 0.0 | 6.0 | 0.00 | 0.02 | 0.00 | 31 | 1010.6 |
| 20260509193025 | 58 | 171 | 1.0 | 11.0 | 0.00 | 0.02 | 0.00 | 30 | 1010.5 |
| 20260509191524 | 60 | 169 | 2.0 | 9.0 | 0.00 | 0.02 | 0.00 | 27 | 1010.5 |
| 20260509190024 | 60 | 191 | 3.0 | 11.0 | 0.00 | 0.03 | 0.00 | 30 | 1010.6 |
| 20260509184522 | 59 | 191 | 3.0 | 11.0 | 0.00 | 0.03 | 0.00 | 28 | 1010.8 |
| 20260509183022 | 59 | 186 | 4.0 | 13.0 | 0.00 | 0.03 | 0.00 | 33 | 1010.7 |
| 20260509181519 | 58 | 155 | 5.0 | 12.0 | 0.00 | 0.03 | 0.00 | 32 | 1010.9 |
| 20260509180018 | 59 | 175 | 3.0 | 14.0 | 0.00 | 0.03 | 0.00 | 31 | 1010.8 |
| 20260509174516 | 57 | 192 | 1.0 | 11.0 | 0.00 | 0.03 | 0.00 | 37 | 1011.0 |
| 20260509173015 | 57 | 181 | 0.0 | 8.0 | 0.00 | 0.03 | 0.00 | 38 | 1011.1 |
| 20260509171513 | 56 | 288 | 2.0 | 9.0 | 0.00 | 0.03 | 0.00 | 36 | 1011.2 |
| 20260509170013 | 56 | 170 | 0.0 | 10.0 | 0.00 | 0.03 | 0.00 | 41 | 1011.1 |
| 20260509164512 | 55 | 202 | 3.0 | 11.0 | 0.00 | 0.03 | 0.00 | 38 | 1011.1 |
| 20260509163010 | 56 | 167 | 0.0 | 1.0 | 0.00 | 0.03 | 0.00 | 36 | 1011.1 |
| 20260509161512 | 55 | 247 | 0.0 | 7.0 | 0.00 | 0.03 | 0.00 | 38 | 1011.2 |
| 20260509160012 | 54 | 196 | 2.0 | 8.0 | 0.00 | 0.03 | 0.00 | 37 | 1011.3 |
| 20260509154509 | 56 | 171 | 1.0 | 8.0 | 0.00 | 0.03 | 0.00 | 35 | 1011.3 |
| 20260509153017 | 54 | 197 | 0.0 | 6.0 | 0.00 | 0.03 | 0.00 | 38 | 1011.4 |
| 20260509151508 | 55 | 194 | 0.0 | 7.0 | 0.00 | 0.03 | 0.00 | 38 | 1011.5 |
| 20260509150007 | 56 | 167 | 2.0 | 9.0 | 0.00 | 0.03 | 0.00 | 37 | 1011.4 |
| 20260509144503 | 54 | 200 | 0.0 | 8.0 | 0.00 | 0.03 | 0.00 | 40 | 1011.5 |
| 20260509143002 | 53 | 153 | 0.0 | 1.0 | 0.00 | 0.03 | 0.00 | 45 | 1011.7 |
| 20260509141502 | 54 | 163 | 0.0 | 2.0 | 0.00 | 0.03 | 0.00 | 47 | 1011.8 |
| 20260509140119 | 53 | 189 | 0.0 | 0.0 | 0.00 | 0.03 | 0.00 | 48 | 1011.8 |
| 20260509134600 | 52 | 224 | 0.0 | 0.0 | 0.00 | 0.03 | 0.00 | 51 | 1011.8 |